createdAt,value
2022-10-09T00:01:35.864Z,4.20
2022-10-09T00:04:09.184Z,4.00
2022-10-09T00:06:42.387Z,4.20
2022-10-09T00:09:15.626Z,5.00
2022-10-09T00:11:48.442Z,4.90
2022-10-09T00:14:23.895Z,4.90
2022-10-09T00:16:56.793Z,4.60
2022-10-09T00:19:30.814Z,4.80
2022-10-09T00:22:03.042Z,4.40
2022-10-09T00:24:35.031Z,4.30
2022-10-09T00:27:06.853Z,4.40
2022-10-09T00:29:39.143Z,5.00
2022-10-09T00:32:11.202Z,4.70
2022-10-09T00:34:45.518Z,4.90
2022-10-09T00:37:21.265Z,4.90
2022-10-09T00:39:54.495Z,5.00
2022-10-09T00:42:31.980Z,5.10
2022-10-09T00:45:05.391Z,5.50
2022-10-09T00:47:42.619Z,5.70
2022-10-09T00:50:19.025Z,6.10
2022-10-09T00:52:52.943Z,5.90
2022-10-09T00:55:26.473Z,5.50
2022-10-09T00:58:00.619Z,5.50
2022-10-09T01:00:35.700Z,5.80
2022-10-09T01:03:11.307Z,6.10
2022-10-09T01:05:49.319Z,6.20
2022-10-09T01:08:25.654Z,5.80
2022-10-09T01:11:03.837Z,5.90
2022-10-09T01:13:43.386Z,5.90
2022-10-09T01:16:23.705Z,5.50
2022-10-09T01:19:02.501Z,5.40
2022-10-09T01:21:36.992Z,5.30
2022-10-09T01:24:26.337Z,5.50
2022-10-09T01:27:16.119Z,5.50
2022-10-09T01:29:53.596Z,5.50
2022-10-09T01:32:28.564Z,5.90
2022-10-09T01:35:00.871Z,5.50
2022-10-09T01:37:35.301Z,5.90
2022-10-09T01:40:11.674Z,5.40
2022-10-09T01:42:47.243Z,5.40
2022-10-09T01:45:20.208Z,5.30
2022-10-09T01:47:54.751Z,5.30
2022-10-09T01:50:30.751Z,5.20
2022-10-09T01:53:05.568Z,4.90
2022-10-09T01:55:46.091Z,5.30
2022-10-09T01:58:25.132Z,5.30
2022-10-09T02:01:02.601Z,5.30
2022-10-09T02:03:35.335Z,5.30
2022-10-09T02:06:10.582Z,5.60
2022-10-09T02:08:44.167Z,5.90
2022-10-09T02:11:19.288Z,6.10
2022-10-09T02:13:53.286Z,6.20
2022-10-09T02:16:37.312Z,6.70
2022-10-09T02:19:15.432Z,6.60
2022-10-09T02:21:54.428Z,6.70
2022-10-09T02:24:27.867Z,7.20
2022-10-09T02:27:01.110Z,7.00
2022-10-09T02:29:33.145Z,7.70
2022-10-09T02:32:09.070Z,7.90
2022-10-09T02:34:43.541Z,8.20
2022-10-09T02:37:16.813Z,8.40
2022-10-09T02:39:50.913Z,8.40
2022-10-09T02:42:26.104Z,8.80
2022-10-09T02:44:59.146Z,8.70
2022-10-09T02:47:31.384Z,10.50
2022-10-09T02:50:05.484Z,10.00
2022-10-09T02:52:38.428Z,9.80
2022-10-09T02:55:17.026Z,10.30
2022-10-09T02:57:50.503Z,9.90
2022-10-09T03:00:22.424Z,9.60
2022-10-09T03:02:55.949Z,9.80
2022-10-09T03:05:30.063Z,10.00
2022-10-09T03:08:04.003Z,10.50
2022-10-09T03:10:40.582Z,11.20
2022-10-09T03:13:13.958Z,12.00
2022-10-09T03:15:47.470Z,12.00
2022-10-09T03:18:20.563Z,12.40
2022-10-09T03:20:54.892Z,12.80
2022-10-09T03:23:27.830Z,13.50
2022-10-09T03:26:05.691Z,13.90
2022-10-09T03:28:40.941Z,13.70
2022-10-09T03:31:33.038Z,14.30
2022-10-09T03:34:08.810Z,13.70
2022-10-09T03:36:40.708Z,14.10
2022-10-09T03:39:13.168Z,15.20
2022-10-09T03:41:45.020Z,14.90
2022-10-09T03:44:19.370Z,14.60
2022-10-09T03:46:52.848Z,14.30
2022-10-09T03:49:24.883Z,14.00
2022-10-09T03:52:00.645Z,13.60
2022-10-09T03:54:33.318Z,13.20
2022-10-09T03:57:05.466Z,13.10
2022-10-09T03:59:38.159Z,12.50
2022-10-09T04:02:11.123Z,12.30
2022-10-09T04:04:45.305Z,11.90
2022-10-09T04:07:17.295Z,10.90
2022-10-09T04:09:50.909Z,11.10
2022-10-09T04:12:22.702Z,10.90
2022-10-09T04:14:54.634Z,10.00
2022-10-09T04:17:27.285Z,9.70
2022-10-09T04:19:59.023Z,9.40
2022-10-09T04:22:33.104Z,9.40
2022-10-09T04:25:08.845Z,9.20
2022-10-09T04:27:40.666Z,9.50
2022-10-09T04:30:15.053Z,9.70
2022-10-09T04:32:51.618Z,10.50
2022-10-09T04:35:24.623Z,10.90
2022-10-09T04:37:56.631Z,11.40
2022-10-09T04:40:28.827Z,11.00
2022-10-09T04:43:01.608Z,11.40
2022-10-09T04:45:33.995Z,11.60
2022-10-09T04:48:05.898Z,11.40
2022-10-09T04:50:40.919Z,11.70
2022-10-09T04:53:16.684Z,11.50
2022-10-09T04:55:49.938Z,11.60
2022-10-09T04:58:28.235Z,11.30
2022-10-09T05:01:00.383Z,12.30
2022-10-09T05:03:36.763Z,12.70
2022-10-09T05:06:16.007Z,12.70
2022-10-09T05:08:49.075Z,12.90
2022-10-09T05:11:23.297Z,12.60
2022-10-09T05:13:56.743Z,12.50
2022-10-09T05:16:44.760Z,13.70
2022-10-09T05:19:26.520Z,13.00
2022-10-09T05:22:02.528Z,12.50
2022-10-09T05:24:36.404Z,12.70
2022-10-09T05:27:09.165Z,12.80
2022-10-09T05:29:40.881Z,13.10
2022-10-09T05:32:13.269Z,13.30
2022-10-09T05:34:46.964Z,13.40
2022-10-09T05:37:19.167Z,13.40
2022-10-09T05:39:52.960Z,12.00
2022-10-09T05:42:26.337Z,12.00
2022-10-09T05:44:59.401Z,12.60
2022-10-09T05:47:35.854Z,10.90
2022-10-09T05:50:09.889Z,11.60
2022-10-09T05:52:42.246Z,11.10
2022-10-09T05:55:14.702Z,10.60
2022-10-09T05:57:47.441Z,11.50
2022-10-09T06:00:21.693Z,11.80
2022-10-09T06:02:57.191Z,10.40
2022-10-09T06:05:31.825Z,10.20
2022-10-09T06:08:04.167Z,15.00
2022-10-09T06:10:41.300Z,12.20
2022-10-09T06:13:13.499Z,11.10
2022-10-09T06:15:56.188Z,11.20
2022-10-09T06:18:30.418Z,10.10
2022-10-09T06:21:05.545Z,10.30
2022-10-09T06:23:40.714Z,9.70
2022-10-09T06:26:14.508Z,8.60
2022-10-09T06:28:48.782Z,8.70
2022-10-09T06:31:25.368Z,8.90
2022-10-09T06:33:59.473Z,8.80
2022-10-09T06:36:33.864Z,8.10
2022-10-09T06:39:09.134Z,8.20
2022-10-09T06:41:45.148Z,7.90
2022-10-09T06:44:18.612Z,7.70
2022-10-09T06:46:54.255Z,8.30
2022-10-09T06:49:27.356Z,8.70
2022-10-09T06:51:59.309Z,9.00
2022-10-09T06:54:32.836Z,10.40
2022-10-09T06:57:07.161Z,9.40
2022-10-09T06:59:38.922Z,8.00
2022-10-09T07:02:13.478Z,7.80
2022-10-09T07:04:45.604Z,7.70
2022-10-09T07:07:19.929Z,9.40
2022-10-09T07:09:53.012Z,8.50
2022-10-09T07:12:25.584Z,8.00
2022-10-09T07:14:59.778Z,8.80
2022-10-09T07:17:31.946Z,8.00
2022-10-09T07:20:05.192Z,8.40
2022-10-09T07:22:37.945Z,8.20
2022-10-09T07:25:13.165Z,8.10
2022-10-09T07:27:45.185Z,8.30
2022-10-09T07:30:17.664Z,8.30
2022-10-09T07:32:51.217Z,7.80
2022-10-09T07:35:24.927Z,7.60
2022-10-09T07:38:00.866Z,7.50
2022-10-09T07:40:37.390Z,8.00
2022-10-09T07:43:12.352Z,7.10
2022-10-09T07:45:47.405Z,7.70
2022-10-09T07:48:20.005Z,7.90
2022-10-09T07:50:53.709Z,8.30
2022-10-09T07:53:25.949Z,7.60
2022-10-09T07:56:00.577Z,8.00
2022-10-09T07:58:34.321Z,8.20
2022-10-09T08:01:09.112Z,10.10
2022-10-09T08:03:43.669Z,11.40
2022-10-09T08:06:15.623Z,9.70
2022-10-09T08:08:54.059Z,9.00
2022-10-09T08:11:30.897Z,8.60
2022-10-09T08:14:03.678Z,8.30
2022-10-09T08:16:36.208Z,7.90
2022-10-09T08:19:09.559Z,7.10
2022-10-09T08:21:42.839Z,7.30
2022-10-09T08:24:15.521Z,7.00
2022-10-09T08:26:49.174Z,7.80
2022-10-09T08:29:22.026Z,8.50
2022-10-09T08:31:54.797Z,6.80
2022-10-09T08:34:29.727Z,7.40
2022-10-09T08:37:04.056Z,6.60
2022-10-09T08:39:38.415Z,6.80
2022-10-09T08:42:18.241Z,6.30
2022-10-09T08:44:50.974Z,7.30
2022-10-09T08:47:29.850Z,7.30
2022-10-09T08:50:09.207Z,7.20
2022-10-09T08:52:50.132Z,7.70
2022-10-09T08:55:26.181Z,6.80
2022-10-09T08:58:05.619Z,6.70
2022-10-09T09:00:44.156Z,6.60
2022-10-09T09:03:41.449Z,7.00
2022-10-09T09:06:18.299Z,7.90
2022-10-09T09:09:00.991Z,7.70
2022-10-09T09:11:40.031Z,7.20
2022-10-09T09:14:29.711Z,7.70
2022-10-09T09:17:11.327Z,6.60
2022-10-09T09:19:50.198Z,6.20
2022-10-09T09:22:24.716Z,6.80
2022-10-09T09:25:01.098Z,7.00
2022-10-09T09:27:35.608Z,11.90
2022-10-09T09:30:18.715Z,6.50
2022-10-09T09:33:10.923Z,6.50
2022-10-09T09:35:50.406Z,6.40
2022-10-09T09:38:23.164Z,6.40
2022-10-09T09:40:56.730Z,4.90
2022-10-09T09:43:32.667Z,4.60
2022-10-09T09:46:10.642Z,4.90
2022-10-09T09:48:49.216Z,5.80
2022-10-09T09:51:28.604Z,5.20
2022-10-09T09:54:04.310Z,5.00
2022-10-09T09:57:11.016Z,4.50
2022-10-09T09:59:37.589Z,4.90
2022-10-09T10:02:15.474Z,5.90
2022-10-09T10:04:56.481Z,5.10
2022-10-09T10:07:38.859Z,4.50
2022-10-09T10:10:24.709Z,4.40
2022-10-09T10:13:02.771Z,4.40
2022-10-09T10:15:37.551Z,4.00
2022-10-09T10:18:15.422Z,3.60
2022-10-09T10:20:50.929Z,6.10
2022-10-09T10:23:40.830Z,5.00
2022-10-09T10:26:28.834Z,5.80
2022-10-09T10:29:05.629Z,5.70
2022-10-09T10:31:46.794Z,4.10
2022-10-09T10:34:22.858Z,3.00
2022-10-09T10:37:03.357Z,3.80
2022-10-09T10:39:41.504Z,3.50
2022-10-09T10:42:19.725Z,4.50
2022-10-09T10:44:56.519Z,4.70
2022-10-09T10:47:36.884Z,3.80
2022-10-09T10:50:15.889Z,3.70
2022-10-09T10:52:58.971Z,3.30
2022-10-09T10:55:38.902Z,3.60
2022-10-09T10:58:23.212Z,3.60
2022-10-09T11:01:14.179Z,3.40
2022-10-09T11:04:03.140Z,3.20
2022-10-09T11:06:42.109Z,3.20
2022-10-09T11:09:19.171Z,3.60
2022-10-09T11:11:54.463Z,3.10
2022-10-09T11:14:40.289Z,3.10
2022-10-09T11:17:26.616Z,4.20
2022-10-09T11:20:31.960Z,4.30
2022-10-09T11:23:10.919Z,3.50
2022-10-09T11:25:49.890Z,4.60
2022-10-09T11:28:26.247Z,3.70
2022-10-09T11:31:08.019Z,3.20
2022-10-09T11:33:47.288Z,3.50
2022-10-09T11:36:27.562Z,3.50
2022-10-09T11:39:03.900Z,2.70
2022-10-09T11:41:38.003Z,3.30
2022-10-09T11:44:34.378Z,2.90
2022-10-09T11:47:16.643Z,3.10
2022-10-09T11:50:05.011Z,3.00
2022-10-09T11:52:42.955Z,4.30
2022-10-09T11:55:23.169Z,6.10
2022-10-09T11:57:55.432Z,5.20
2022-10-09T12:00:38.162Z,3.60
2022-10-09T12:03:30.469Z,3.80
2022-10-09T12:06:12.798Z,3.70
2022-10-09T12:08:56.155Z,3.30
2022-10-09T12:11:30.551Z,3.00
2022-10-09T12:14:04.862Z,3.30
2022-10-09T12:16:42.016Z,2.30
2022-10-09T12:19:27.960Z,2.50
2022-10-09T12:22:09.832Z,2.50
2022-10-09T12:24:49.305Z,3.10
2022-10-09T12:27:25.126Z,2.50
2022-10-09T12:30:05.070Z,4.30
2022-10-09T12:32:39.570Z,3.30
2022-10-09T12:35:20.391Z,3.70
2022-10-09T12:37:52.540Z,4.30
2022-10-09T12:40:27.585Z,2.90
2022-10-09T12:43:01.857Z,2.80
2022-10-09T12:45:34.406Z,2.40
2022-10-09T12:48:13.970Z,2.30
2022-10-09T12:50:49.593Z,2.50
2022-10-09T12:53:23.777Z,2.30
2022-10-09T12:55:59.283Z,2.40
2022-10-09T12:58:33.708Z,2.10
2022-10-09T13:01:15.982Z,2.10
2022-10-09T13:07:05.670Z,3.80
2022-10-09T13:09:45.254Z,3.00
2022-10-09T13:12:27.492Z,2.40
2022-10-09T13:15:07.978Z,2.20
2022-10-09T13:17:43.947Z,2.30
2022-10-09T13:20:34.357Z,2.40
2022-10-09T13:23:33.658Z,2.40
2022-10-09T13:26:41.440Z,3.60
2022-10-09T13:29:22.211Z,2.00
2022-10-09T13:32:05.409Z,3.30
2022-10-09T13:35:03.394Z,2.00
2022-10-09T13:38:03.407Z,2.00
2022-10-09T13:40:45.345Z,2.30
2022-10-09T13:43:27.288Z,2.50
2022-10-09T13:46:07.675Z,1.70
2022-10-09T13:48:40.701Z,2.10
2022-10-09T13:51:40.067Z,1.80
2022-10-09T13:54:39.488Z,1.80
2022-10-09T13:57:36.634Z,1.90
2022-10-09T14:00:15.180Z,2.00
2022-10-09T14:02:48.855Z,2.30
2022-10-09T14:05:47.416Z,1.90
2022-10-09T14:08:21.372Z,2.80
2022-10-09T14:11:18.866Z,3.50
2022-10-09T14:14:18.846Z,3.70
2022-10-09T14:17:18.364Z,3.50
2022-10-09T14:20:15.427Z,4.30
2022-10-09T14:23:36.215Z,2.20
2022-10-09T14:26:33.386Z,3.20
2022-10-09T14:30:04.514Z,2.60
2022-10-09T14:33:26.778Z,4.90
2022-10-09T14:36:01.498Z,6.10
2022-10-09T14:39:29.664Z,5.30
2022-10-09T14:45:54.088Z,3.10
2022-10-09T14:48:53.962Z,2.90
2022-10-09T14:51:36.816Z,2.70
2022-10-09T14:54:14.747Z,2.30
2022-10-09T14:57:37.441Z,2.50
2022-10-09T15:00:23.738Z,2.20
2022-10-09T15:03:49.906Z,2.40
2022-10-09T15:06:51.797Z,2.30
2022-10-09T15:09:52.495Z,4.50
2022-10-09T15:12:48.740Z,4.50
2022-10-09T15:15:48.563Z,2.10
2022-10-09T15:18:26.449Z,3.50
2022-10-09T15:25:18.458Z,8.20
2022-10-09T15:27:55.965Z,6.20
2022-10-09T15:30:32.098Z,7.60
2022-10-09T15:33:10.580Z,3.80
2022-10-09T15:35:53.993Z,3.30
2022-10-09T15:38:29.116Z,7.40
2022-10-09T15:41:07.326Z,5.30
2022-10-09T15:44:08.500Z,4.10
2022-10-09T15:46:44.644Z,3.80
2022-10-09T15:49:46.552Z,3.90
2022-10-09T15:55:52.126Z,11.20
2022-10-09T16:02:23.893Z,13.50
2022-10-09T16:05:00.731Z,15.60
2022-10-09T16:11:53.293Z,22.10
2022-10-09T16:14:27.772Z,20.80
2022-10-09T16:17:28.936Z,18.20
2022-10-09T16:20:10.560Z,21.80
2022-10-09T16:22:44.422Z,24.10
2022-10-09T16:25:21.092Z,30.30
2022-10-09T16:27:55.713Z,48.10
2022-10-09T16:30:40.750Z,39.80
2022-10-09T16:33:16.802Z,35.30
2022-10-09T16:36:16.065Z,21.10
2022-10-09T16:39:17.721Z,14.40
2022-10-09T16:42:05.523Z,20.80
2022-10-09T16:45:08.235Z,17.00
2022-10-09T16:51:08.355Z,43.10
2022-10-09T16:57:32.980Z,49.90
2022-10-09T17:00:24.131Z,41.40
2022-10-09T17:03:04.474Z,50.40
2022-10-09T17:09:41.442Z,65.80
2022-10-09T17:12:47.503Z,61.80
2022-10-09T17:15:25.457Z,58.50
2022-10-09T17:18:11.390Z,56.00
2022-10-09T17:20:52.823Z,56.90
2022-10-09T17:23:52.742Z,41.50
2022-10-09T17:30:20.220Z,29.00
2022-10-09T17:36:42.166Z,30.60
2022-10-09T17:40:28.588Z,32.40
2022-10-09T17:43:13.845Z,36.00
2022-10-09T17:46:12.443Z,36.20
2022-10-09T17:48:50.148Z,32.80
2022-10-09T17:51:29.157Z,31.90
2022-10-09T17:54:31.946Z,31.00
2022-10-09T17:57:31.539Z,34.80
2022-10-09T18:00:06.800Z,39.30
2022-10-09T18:02:44.796Z,43.30
2022-10-09T18:05:18.414Z,44.40
2022-10-09T18:07:55.583Z,38.70
2022-10-09T18:14:11.000Z,44.70
2022-10-09T18:16:46.618Z,55.60
2022-10-09T18:19:54.952Z,62.40
2022-10-09T18:22:33.868Z,62.80
2022-10-09T18:25:19.343Z,67.90
2022-10-09T18:27:59.664Z,58.70
2022-10-09T18:30:37.237Z,42.20
2022-10-09T18:33:11.976Z,45.90
2022-10-09T18:45:42.789Z,40.80
2022-10-09T18:48:46.359Z,30.70
2022-10-09T18:51:49.526Z,39.40
2022-10-09T18:57:56.126Z,33.10
2022-10-09T19:01:18.797Z,30.40
2022-10-09T19:03:58.461Z,33.20
2022-10-09T19:10:27.483Z,32.90
2022-10-09T19:13:08.786Z,29.70
2022-10-09T19:16:12.940Z,29.80
2022-10-09T19:18:53.618Z,30.50
2022-10-09T19:21:57.327Z,31.60
2022-10-09T19:24:58.016Z,33.00
2022-10-09T19:27:37.629Z,31.80
2022-10-09T19:30:16.425Z,31.50
2022-10-09T19:32:58.111Z,30.80
2022-10-09T19:35:33.891Z,31.40
2022-10-09T19:38:08.253Z,29.70
2022-10-09T19:40:48.874Z,29.60
2022-10-09T19:43:31.369Z,25.80
2022-10-09T19:46:32.953Z,26.00
2022-10-09T19:49:09.858Z,26.60
2022-10-09T19:51:43.283Z,26.20
2022-10-09T19:54:22.258Z,24.40
2022-10-09T19:57:00.265Z,23.30
2022-10-09T19:59:49.289Z,23.80
2022-10-09T20:02:23.465Z,24.00
2022-10-09T20:05:20.875Z,23.80
2022-10-09T20:08:19.402Z,24.70
2022-10-09T20:10:57.852Z,27.20
2022-10-09T20:13:59.549Z,26.40
2022-10-09T20:16:35.894Z,23.70
2022-10-09T20:19:13.118Z,28.10
2022-10-09T20:22:16.749Z,30.90
2022-10-09T20:24:54.358Z,26.60
2022-10-09T20:34:59.575Z,18.30
2022-10-09T20:37:57.617Z,17.20
2022-10-09T20:44:01.502Z,15.70
2022-10-09T20:47:03.045Z,15.80
2022-10-09T20:49:39.829Z,15.80
2022-10-09T20:52:38.059Z,16.10
2022-10-09T20:55:38.742Z,15.60
2022-10-09T20:59:24.595Z,15.60
2022-10-09T21:02:22.533Z,15.70
2022-10-09T21:04:58.859Z,17.40
2022-10-09T21:07:36.346Z,19.20
2022-10-09T21:10:16.238Z,19.00
2022-10-09T21:12:53.046Z,19.00
2022-10-09T21:15:30.401Z,20.10
2022-10-09T21:18:28.220Z,20.70
2022-10-09T21:21:56.340Z,21.20
2022-10-09T21:24:36.709Z,23.10
2022-10-09T21:27:35.269Z,22.40
2022-10-09T21:30:16.617Z,23.60
2022-10-09T21:32:49.885Z,20.10
2022-10-09T21:35:26.751Z,18.70
2022-10-09T21:38:08.130Z,24.30
2022-10-09T21:41:09.884Z,27.80
2022-10-09T21:43:45.785Z,21.40
2022-10-09T21:46:21.612Z,21.40
2022-10-09T21:49:05.408Z,22.50
2022-10-09T21:51:48.049Z,18.50
2022-10-09T21:54:29.795Z,18.00
2022-10-09T21:57:07.130Z,18.30
2022-10-09T22:00:03.878Z,16.60
2022-10-09T22:02:41.264Z,16.30
2022-10-09T22:05:17.063Z,15.20
2022-10-09T22:07:55.205Z,15.40
2022-10-09T22:10:54.822Z,15.80
2022-10-09T22:13:53.051Z,14.80
2022-10-09T22:16:35.424Z,14.40
2022-10-09T22:19:56.451Z,14.20
2022-10-09T22:22:39.780Z,13.60
2022-10-09T22:25:16.965Z,13.70
2022-10-09T22:27:48.877Z,16.70
2022-10-09T22:30:23.926Z,23.50
2022-10-09T22:36:40.612Z,18.50
2022-10-09T22:39:17.583Z,17.10
2022-10-09T22:42:20.766Z,17.40
2022-10-09T22:44:59.257Z,18.20
2022-10-09T22:47:37.286Z,16.70
2022-10-09T22:50:20.714Z,14.90
2022-10-09T22:52:55.098Z,13.80
2022-10-09T22:55:32.225Z,15.60
2022-10-09T22:58:13.098Z,18.30
2022-10-09T23:04:42.677Z,16.10
2022-10-09T23:07:40.428Z,13.40
2022-10-09T23:10:41.386Z,12.40
2022-10-09T23:14:00.639Z,12.20
2022-10-09T23:16:36.186Z,11.40
2022-10-09T23:19:35.663Z,11.70
2022-10-09T23:22:33.067Z,11.50
2022-10-09T23:28:34.842Z,11.20
2022-10-09T23:35:24.183Z,11.90
2022-10-09T23:38:22.181Z,12.00
2022-10-09T23:47:50.019Z,11.60
2022-10-09T23:50:50.116Z,11.50
2022-10-09T23:56:53.050Z,11.40
